createdAt,value
2023-03-26T00:00:48.327Z,86.58
2023-03-26T00:01:50.735Z,85.13
2023-03-26T00:02:53.272Z,86.16
2023-03-26T00:03:58.821Z,87.49
2023-03-26T00:05:02.271Z,87.15
2023-03-26T00:06:09.147Z,89.74
2023-03-26T00:07:12.042Z,87.33
2023-03-26T00:08:16.015Z,85.93
2023-03-26T00:09:19.860Z,86.36
2023-03-26T00:10:22.341Z,86.38
2023-03-26T00:11:27.661Z,87.75
2023-03-26T00:12:30.229Z,85.70
2023-03-26T00:13:33.104Z,85.16
2023-03-26T00:14:35.480Z,87.55
2023-03-26T00:15:38.344Z,88.37
2023-03-26T00:16:43.431Z,86.50
2023-03-26T00:17:46.155Z,85.77
2023-03-26T00:18:52.837Z,86.55
2023-03-26T00:19:56.554Z,85.41
2023-03-26T00:21:00.022Z,84.55
2023-03-26T00:22:04.241Z,84.74
2023-03-26T00:23:07.342Z,85.24
2023-03-26T00:24:14.210Z,86.56
2023-03-26T00:25:16.875Z,87.64
2023-03-26T00:26:19.945Z,87.94
2023-03-26T00:27:22.599Z,87.86
2023-03-26T00:28:25.729Z,86.26
2023-03-26T00:29:28.202Z,85.96
2023-03-26T00:30:30.531Z,87.26
2023-03-26T00:31:32.852Z,86.33
2023-03-26T00:32:35.122Z,87.34
2023-03-26T00:33:40.282Z,87.00
2023-03-26T00:34:44.336Z,87.59
2023-03-26T00:35:51.269Z,87.37
2023-03-26T00:36:54.331Z,87.27
2023-03-26T00:37:58.180Z,86.59
2023-03-26T00:39:02.828Z,85.82
2023-03-26T00:40:07.829Z,85.99
2023-03-26T00:41:24.104Z,87.25
2023-03-26T00:42:27.040Z,85.74
2023-03-26T00:43:30.958Z,86.23
2023-03-26T00:44:34.798Z,87.31
2023-03-26T00:45:37.628Z,87.90
2023-03-26T00:46:41.373Z,86.59
2023-03-26T00:47:44.737Z,88.58
2023-03-26T00:48:47.592Z,86.12
2023-03-26T00:49:50.109Z,86.49
2023-03-26T00:50:52.660Z,86.28
2023-03-26T00:51:55.290Z,85.71
2023-03-26T00:52:58.232Z,86.32
2023-03-26T00:54:00.938Z,87.18
2023-03-26T00:55:03.419Z,87.73
2023-03-26T00:56:07.036Z,86.31
2023-03-26T00:57:10.762Z,88.35
2023-03-26T00:58:15.192Z,87.82
2023-03-26T00:59:17.619Z,87.05
2023-03-26T01:00:26.152Z,87.38
2023-03-26T01:01:29.735Z,87.82
2023-03-26T01:02:32.707Z,87.10
2023-03-26T01:03:37.948Z,85.69
2023-03-26T01:04:46.934Z,86.33
2023-03-26T01:07:06.436Z,85.96
2023-03-26T01:08:15.458Z,86.17
2023-03-26T01:09:21.142Z,86.39
2023-03-26T01:10:23.928Z,87.46
2023-03-26T01:11:29.486Z,87.64
2023-03-26T01:12:32.160Z,88.78
2023-03-26T01:13:37.813Z,88.98
2023-03-26T01:14:40.288Z,88.39
2023-03-26T01:15:43.982Z,87.51
2023-03-26T01:16:55.426Z,88.12
2023-03-26T01:17:58.871Z,86.94
2023-03-26T01:19:01.216Z,87.85
2023-03-26T01:20:14.402Z,87.36
2023-03-26T01:21:21.840Z,87.15
2023-03-26T01:22:27.155Z,86.87
2023-03-26T01:24:44.577Z,88.05
2023-03-26T01:25:50.601Z,88.08
2023-03-26T01:27:27.468Z,87.76
2023-03-26T01:28:33.604Z,89.71
2023-03-26T01:29:47.617Z,89.29
2023-03-26T01:30:58.091Z,89.27
2023-03-26T01:32:10.291Z,88.72
2023-03-26T01:33:27.314Z,88.77
2023-03-26T01:34:53.164Z,88.91
2023-03-26T01:36:15.854Z,87.81
2023-03-26T01:37:24.835Z,88.16
2023-03-26T01:38:44.042Z,88.29
2023-03-26T01:40:00.024Z,89.21
2023-03-26T01:41:34.021Z,88.39
2023-03-26T01:42:40.515Z,89.04
2023-03-26T01:44:01.367Z,89.99
2023-03-26T01:45:07.990Z,89.38
2023-03-26T01:46:14.286Z,92.42
2023-03-26T01:47:17.935Z,91.57
2023-03-26T01:48:20.509Z,88.20
2023-03-26T01:49:22.730Z,89.53
2023-03-26T01:50:26.939Z,88.51
2023-03-26T01:51:32.905Z,87.38
2023-03-26T01:52:35.402Z,87.46
2023-03-26T01:53:46.887Z,87.92
2023-03-26T01:54:49.779Z,88.82
2023-03-26T01:55:58.651Z,89.78
2023-03-26T01:57:31.310Z,90.44
2023-03-26T01:58:46.112Z,90.70
2023-03-26T02:00:14.777Z,91.05
2023-03-26T02:01:24.215Z,91.19
2023-03-26T02:02:48.415Z,91.85
2023-03-26T02:04:03.313Z,92.28
2023-03-26T02:06:46.861Z,92.73
2023-03-26T02:07:57.604Z,93.14
2023-03-26T02:09:10.392Z,93.34
2023-03-26T02:10:22.408Z,93.68
2023-03-26T02:11:34.824Z,94.07
2023-03-26T02:12:30.980Z,93.86
2023-03-26T02:13:33.404Z,93.84
2023-03-26T02:14:35.851Z,93.73
2023-03-26T02:15:40.789Z,93.19
2023-03-26T02:16:45.010Z,93.32
2023-03-26T02:17:48.897Z,93.10
2023-03-26T02:18:54.376Z,92.86
2023-03-26T02:19:56.838Z,92.82
2023-03-26T02:21:00.353Z,92.65
2023-03-26T02:22:03.141Z,92.38
2023-03-26T02:23:06.727Z,92.41
2023-03-26T02:24:09.504Z,92.62
2023-03-26T02:25:17.972Z,92.64
2023-03-26T02:26:20.894Z,92.49
2023-03-26T02:27:28.121Z,92.48
2023-03-26T02:28:30.502Z,92.76
2023-03-26T02:29:39.237Z,93.82
2023-03-26T02:30:44.961Z,94.53
2023-03-26T02:31:48.419Z,95.17
2023-03-26T02:32:53.427Z,95.76
2023-03-26T02:33:57.656Z,96.06
2023-03-26T02:35:01.428Z,96.99
2023-03-26T02:36:05.374Z,97.36
2023-03-26T02:37:08.419Z,97.93
2023-03-26T02:38:13.589Z,98.08
2023-03-26T02:39:16.591Z,98.68
2023-03-26T02:40:21.820Z,99.37
2023-03-26T02:41:24.728Z,100.00
2023-03-26T02:42:31.942Z,100.00
2023-03-26T02:43:34.414Z,100.00
2023-03-26T02:44:39.674Z,100.00
2023-03-26T02:45:53.185Z,100.00
2023-03-26T02:48:08.363Z,100.00
2023-03-26T02:49:16.139Z,100.00
2023-03-26T02:50:19.057Z,100.00
2023-03-26T02:51:27.113Z,100.00
2023-03-26T02:52:33.563Z,100.00
2023-03-26T02:53:36.981Z,100.00
2023-03-26T02:54:47.313Z,100.00
2023-03-26T02:55:58.632Z,100.00
2023-03-26T02:57:01.963Z,100.00
2023-03-26T02:58:09.853Z,100.00
2023-03-26T02:59:14.252Z,100.00
2023-03-26T03:00:17.681Z,100.00
2023-03-26T03:01:24.833Z,100.00
2023-03-26T03:02:29.389Z,100.00
2023-03-26T03:03:33.957Z,100.00
2023-03-26T03:04:41.894Z,100.00
2023-03-26T03:05:44.781Z,100.00
2023-03-26T03:06:53.575Z,100.00
2023-03-26T03:07:57.507Z,100.00
2023-03-26T03:09:02.091Z,100.00
2023-03-26T03:10:15.297Z,100.00
2023-03-26T03:11:28.318Z,100.00
2023-03-26T03:12:31.145Z,100.00
2023-03-26T03:13:33.610Z,100.00
2023-03-26T03:14:37.607Z,100.00
2023-03-26T03:15:40.300Z,100.00
2023-03-26T03:16:42.938Z,100.00
2023-03-26T03:17:46.513Z,100.00
2023-03-26T03:18:52.194Z,100.00
2023-03-26T03:19:55.472Z,100.00
2023-03-26T03:20:58.109Z,100.00
2023-03-26T03:22:01.056Z,100.00
2023-03-26T03:23:04.651Z,100.00
2023-03-26T03:24:08.026Z,100.00
2023-03-26T03:25:17.046Z,100.00
2023-03-26T03:26:22.919Z,100.00
2023-03-26T03:27:27.784Z,100.00
2023-03-26T03:28:32.190Z,100.00
2023-03-26T03:29:34.989Z,100.00
2023-03-26T03:30:57.526Z,100.00
2023-03-26T03:32:04.901Z,100.00
2023-03-26T03:33:15.232Z,100.00
2023-03-26T03:34:17.837Z,100.00
2023-03-26T03:35:22.691Z,100.00
2023-03-26T03:36:28.072Z,100.00
2023-03-26T03:37:32.457Z,100.00
2023-03-26T03:38:34.689Z,100.00
2023-03-26T03:39:37.246Z,100.00
2023-03-26T03:40:39.971Z,100.00
2023-03-26T03:41:42.739Z,100.00
2023-03-26T03:42:47.135Z,100.00
2023-03-26T03:43:51.331Z,100.00
2023-03-26T03:44:55.825Z,100.00
2023-03-26T03:46:17.025Z,100.00
2023-03-26T03:47:22.337Z,100.00
2023-03-26T03:48:25.295Z,100.00
2023-03-26T03:49:28.261Z,100.00
2023-03-26T03:50:33.733Z,100.00
2023-03-26T03:51:38.141Z,100.00
2023-03-26T03:52:42.329Z,100.00
2023-03-26T03:53:46.241Z,100.00
2023-03-26T03:54:50.476Z,100.00
2023-03-26T03:55:59.174Z,100.00
2023-03-26T03:57:03.567Z,100.00
2023-03-26T03:58:18.479Z,100.00
2023-03-26T03:59:21.367Z,100.00
2023-03-26T04:00:25.462Z,100.00
2023-03-26T04:01:30.246Z,100.00
2023-03-26T04:02:35.231Z,100.00
2023-03-26T04:03:39.980Z,100.00
2023-03-26T04:04:45.889Z,100.00
2023-03-26T04:05:52.110Z,100.00
2023-03-26T04:06:55.012Z,100.00
2023-03-26T04:07:59.504Z,100.00
2023-03-26T04:09:03.960Z,100.00
2023-03-26T04:10:09.000Z,100.00
2023-03-26T04:11:29.799Z,100.00
2023-03-26T04:12:34.110Z,100.00
2023-03-26T04:13:38.965Z,100.00
2023-03-26T04:14:43.257Z,100.00
2023-03-26T04:15:50.656Z,100.00
2023-03-26T04:16:54.396Z,100.00
2023-03-26T04:17:57.332Z,100.00
2023-03-26T04:19:01.587Z,100.00
2023-03-26T04:20:06.362Z,100.00
2023-03-26T04:21:09.155Z,100.00
2023-03-26T04:22:11.554Z,100.00
2023-03-26T04:23:18.076Z,100.00
2023-03-26T04:24:23.976Z,100.00
2023-03-26T04:25:47.812Z,100.00
2023-03-26T04:26:52.169Z,100.00
2023-03-26T04:27:58.650Z,100.00
2023-03-26T04:29:20.066Z,100.00
2023-03-26T04:30:23.870Z,100.00
2023-03-26T04:31:29.885Z,100.00
2023-03-26T04:32:34.718Z,100.00
2023-03-26T04:33:40.324Z,100.00
2023-03-26T04:34:44.763Z,100.00
2023-03-26T04:35:48.329Z,100.00
2023-03-26T04:36:55.897Z,100.00
2023-03-26T04:38:05.021Z,100.00
2023-03-26T04:39:12.663Z,100.00
2023-03-26T04:40:30.025Z,100.00
2023-03-26T04:42:47.820Z,100.00
2023-03-26T04:44:01.327Z,100.00
2023-03-26T04:45:10.881Z,100.00
2023-03-26T04:46:16.252Z,100.00
2023-03-26T04:47:20.553Z,100.00
2023-03-26T04:48:23.139Z,100.00
2023-03-26T04:49:26.178Z,100.00
2023-03-26T04:50:28.966Z,100.00
2023-03-26T04:51:37.131Z,100.00
2023-03-26T04:52:45.164Z,100.00
2023-03-26T04:53:59.733Z,100.00
2023-03-26T04:55:08.037Z,100.00
2023-03-26T04:57:36.401Z,99.88
2023-03-26T04:58:43.345Z,99.06
2023-03-26T04:59:45.905Z,99.80
2023-03-26T05:00:49.105Z,99.80
2023-03-26T05:01:53.278Z,99.92
2023-03-26T05:02:59.293Z,99.84
2023-03-26T05:04:02.043Z,100.00
2023-03-26T05:05:05.989Z,100.00
2023-03-26T05:06:11.558Z,100.00
2023-03-26T05:07:17.479Z,99.89
2023-03-26T05:08:21.733Z,99.35
2023-03-26T05:09:26.445Z,99.53
2023-03-26T05:11:35.258Z,99.51
2023-03-26T05:13:14.976Z,99.24
2023-03-26T05:14:37.819Z,98.75
2023-03-26T05:15:59.178Z,98.66
2023-03-26T05:17:33.027Z,98.78
2023-03-26T05:18:54.011Z,99.06
2023-03-26T05:19:57.304Z,98.61
2023-03-26T05:21:00.815Z,98.32
2023-03-26T05:22:03.386Z,98.10
2023-03-26T05:23:07.650Z,97.47
2023-03-26T05:24:14.493Z,97.33
2023-03-26T05:25:17.742Z,97.05
2023-03-26T05:26:20.689Z,95.58
2023-03-26T05:27:23.196Z,95.58
2023-03-26T05:28:26.071Z,94.78
2023-03-26T05:29:30.998Z,94.15
2023-03-26T05:30:33.599Z,94.42
2023-03-26T05:31:37.286Z,94.68
2023-03-26T05:32:41.046Z,95.01
2023-03-26T05:33:43.429Z,95.04
2023-03-26T05:34:47.456Z,94.55
2023-03-26T05:36:06.366Z,94.11
2023-03-26T05:37:08.693Z,93.75
2023-03-26T05:38:13.331Z,93.22
2023-03-26T05:39:15.779Z,92.40
2023-03-26T05:41:30.834Z,91.15
2023-03-26T05:42:34.415Z,90.66
2023-03-26T05:43:38.639Z,91.64
2023-03-26T05:44:49.304Z,91.72
2023-03-26T05:45:53.373Z,91.88
2023-03-26T05:46:57.592Z,91.87
2023-03-26T05:48:01.986Z,90.69
2023-03-26T05:49:05.215Z,89.49
2023-03-26T05:50:10.565Z,88.51
2023-03-26T05:51:17.360Z,88.99
2023-03-26T05:52:22.133Z,89.50
2023-03-26T05:53:43.431Z,89.89
2023-03-26T05:55:04.825Z,89.72
2023-03-26T05:56:21.649Z,89.81
2023-03-26T05:57:42.839Z,89.13
2023-03-26T05:59:03.370Z,89.56
2023-03-26T06:00:14.792Z,89.07
2023-03-26T06:01:22.465Z,89.32
2023-03-26T06:02:46.249Z,89.02
2023-03-26T06:05:17.122Z,88.75
2023-03-26T06:06:21.445Z,88.82
2023-03-26T06:07:27.040Z,88.27
2023-03-26T06:08:34.833Z,87.94
2023-03-26T06:09:40.336Z,87.45
2023-03-26T06:10:44.303Z,87.26
2023-03-26T06:11:46.569Z,86.83
2023-03-26T06:12:49.146Z,87.01
2023-03-26T06:13:51.851Z,87.37
2023-03-26T06:14:53.973Z,87.73
2023-03-26T06:16:01.206Z,87.07
2023-03-26T06:17:05.517Z,86.93
2023-03-26T06:18:10.787Z,86.41
2023-03-26T06:19:27.311Z,86.58
2023-03-26T06:20:35.618Z,86.99
2023-03-26T06:21:40.109Z,86.92
2023-03-26T06:22:44.733Z,86.59
2023-03-26T06:23:49.400Z,87.16
2023-03-26T06:24:56.922Z,87.28
2023-03-26T06:26:01.891Z,86.98
2023-03-26T06:27:15.203Z,86.89
2023-03-26T06:28:25.866Z,87.66
2023-03-26T06:29:30.890Z,87.74
2023-03-26T06:30:35.758Z,87.45
2023-03-26T06:31:40.886Z,86.74
2023-03-26T06:32:49.064Z,86.96
2023-03-26T06:33:53.708Z,86.90
2023-03-26T06:34:57.266Z,87.29
2023-03-26T06:36:01.262Z,86.45
2023-03-26T06:37:03.378Z,85.66
2023-03-26T06:38:07.101Z,85.10
2023-03-26T06:39:11.015Z,85.57
2023-03-26T06:40:16.202Z,85.98
2023-03-26T06:41:29.491Z,86.11
2023-03-26T06:43:07.761Z,84.65
2023-03-26T06:43:48.929Z,84.61
2023-03-26T06:45:10.333Z,85.54
2023-03-26T06:46:15.472Z,84.26
2023-03-26T06:47:32.746Z,83.47
2023-03-26T06:48:54.679Z,82.43
2023-03-26T06:50:10.817Z,83.53
2023-03-26T06:51:18.677Z,83.38
2023-03-26T06:52:39.373Z,82.78
2023-03-26T06:53:52.404Z,82.78
2023-03-26T06:55:02.499Z,83.41
2023-03-26T06:56:16.178Z,83.71
2023-03-26T06:58:31.868Z,83.92
2023-03-26T06:59:52.422Z,83.39
2023-03-26T07:01:13.528Z,82.88
2023-03-26T07:02:36.450Z,83.01
2023-03-26T07:04:00.123Z,83.55
2023-03-26T07:05:19.101Z,83.18
2023-03-26T07:07:51.909Z,82.63
2023-03-26T07:09:13.008Z,82.01
2023-03-26T07:11:33.741Z,81.82
2023-03-26T07:12:52.096Z,81.53
2023-03-26T07:14:13.151Z,81.08
2023-03-26T07:15:29.414Z,81.35
2023-03-26T07:16:37.166Z,80.02
2023-03-26T07:17:44.129Z,78.20
2023-03-26T07:18:54.740Z,78.45
2023-03-26T07:20:00.558Z,78.47
2023-03-26T07:21:04.932Z,78.56
2023-03-26T07:22:12.158Z,78.33
2023-03-26T07:23:33.529Z,78.20
2023-03-26T07:24:56.716Z,76.39
2023-03-26T07:26:33.919Z,75.66
2023-03-26T07:27:50.301Z,76.78
2023-03-26T07:29:13.880Z,75.43
2023-03-26T07:30:25.875Z,75.91
2023-03-26T07:31:54.702Z,74.26
2023-03-26T07:33:23.749Z,73.03
2023-03-26T07:35:01.329Z,72.97
2023-03-26T07:36:30.876Z,73.38
2023-03-26T07:37:50.950Z,73.58
2023-03-26T07:39:11.104Z,73.51
2023-03-26T07:40:21.450Z,72.82
2023-03-26T07:41:47.333Z,72.89
2023-03-26T07:43:31.110Z,73.20
2023-03-26T07:44:45.734Z,72.60
2023-03-26T07:45:54.358Z,71.07
2023-03-26T07:47:05.417Z,70.73
2023-03-26T07:48:19.608Z,70.20
2023-03-26T07:49:37.337Z,70.47
2023-03-26T07:50:42.784Z,69.32
2023-03-26T07:51:48.944Z,69.31
2023-03-26T07:52:54.602Z,69.84
2023-03-26T07:54:05.528Z,70.33
2023-03-26T07:55:22.496Z,69.80
2023-03-26T07:56:49.900Z,69.75
2023-03-26T07:58:16.833Z,68.25
2023-03-26T07:59:33.910Z,68.75
2023-03-26T08:00:50.414Z,68.35
2023-03-26T08:02:00.710Z,68.89
2023-03-26T08:03:18.034Z,69.62
2023-03-26T08:06:09.807Z,67.40
2023-03-26T08:07:18.643Z,68.95
2023-03-26T08:08:49.056Z,68.24
2023-03-26T08:10:15.711Z,68.29
2023-03-26T08:11:38.642Z,68.34
2023-03-26T08:13:08.565Z,67.41
2023-03-26T08:14:37.336Z,67.68
2023-03-26T08:15:44.408Z,68.18
2023-03-26T08:16:56.695Z,68.11
2023-03-26T08:18:10.987Z,67.86
2023-03-26T08:21:05.775Z,69.25
2023-03-26T08:22:22.661Z,69.18
2023-03-26T08:25:31.440Z,68.85
2023-03-26T08:26:57.235Z,68.68
2023-03-26T08:28:15.700Z,68.83
2023-03-26T08:29:21.651Z,69.21
2023-03-26T08:30:26.233Z,68.63
2023-03-26T08:31:34.988Z,68.93
2023-03-26T08:32:38.486Z,69.32
2023-03-26T08:33:40.918Z,69.47
2023-03-26T08:34:45.778Z,69.65
2023-03-26T08:35:49.907Z,68.78
2023-03-26T08:36:52.485Z,68.04
2023-03-26T08:37:55.317Z,68.15
2023-03-26T08:39:00.139Z,68.45
2023-03-26T08:40:03.779Z,68.80
2023-03-26T08:41:17.907Z,68.23
2023-03-26T08:42:57.497Z,67.33
2023-03-26T08:44:32.770Z,68.02
2023-03-26T08:46:10.328Z,68.39
2023-03-26T08:47:40.766Z,67.70
2023-03-26T08:48:57.457Z,67.96
2023-03-26T08:50:18.187Z,67.75
2023-03-26T08:51:41.043Z,67.87
2023-03-26T08:53:08.001Z,67.64
2023-03-26T08:54:24.895Z,66.72
2023-03-26T08:55:35.773Z,66.49
2023-03-26T08:56:54.236Z,66.45
2023-03-26T08:58:11.707Z,67.54
2023-03-26T08:59:52.391Z,71.14
2023-03-26T09:01:07.882Z,66.63
2023-03-26T09:02:36.732Z,70.62
2023-03-26T09:05:42.749Z,65.17
2023-03-26T09:07:22.678Z,64.44
2023-03-26T09:08:54.102Z,65.45
2023-03-26T09:10:30.834Z,64.66
2023-03-26T09:11:46.618Z,64.10
2023-03-26T09:13:19.955Z,66.27
2023-03-26T09:14:41.802Z,65.21
2023-03-26T09:16:18.751Z,63.35
2023-03-26T09:17:50.649Z,62.78
2023-03-26T09:19:22.502Z,70.00
2023-03-26T09:20:38.743Z,63.89
2023-03-26T09:21:53.943Z,61.13
2023-03-26T09:23:33.608Z,62.05
2023-03-26T09:25:13.904Z,61.86
2023-03-26T09:26:25.800Z,62.70
2023-03-26T09:27:53.603Z,60.89
2023-03-26T09:29:06.920Z,63.17
2023-03-26T09:30:47.337Z,69.68
2023-03-26T09:32:05.810Z,59.87
2023-03-26T09:33:36.355Z,60.82
2023-03-26T09:34:44.224Z,61.87
2023-03-26T09:35:57.166Z,62.66
2023-03-26T09:37:26.066Z,62.38
2023-03-26T09:38:47.497Z,62.50
2023-03-26T09:40:17.115Z,64.31
2023-03-26T09:41:24.023Z,61.13
2023-03-26T09:44:21.149Z,62.90
2023-03-26T09:45:33.553Z,61.96
2023-03-26T09:48:34.530Z,63.26
2023-03-26T09:49:46.821Z,61.12
2023-03-26T09:51:04.372Z,64.18
2023-03-26T09:52:29.978Z,63.44
2023-03-26T09:53:56.640Z,59.25
2023-03-26T09:55:38.435Z,59.29
2023-03-26T09:56:59.954Z,59.78
2023-03-26T09:58:10.979Z,60.83
2023-03-26T09:59:35.865Z,62.06
2023-03-26T10:01:04.820Z,61.22
2023-03-26T10:02:45.162Z,61.94
2023-03-26T10:03:43.297Z,66.12
2023-03-26T10:05:04.683Z,62.62
2023-03-26T10:06:19.940Z,64.89
2023-03-26T10:07:46.412Z,64.80
2023-03-26T10:08:52.385Z,60.40
2023-03-26T10:09:59.317Z,60.86
2023-03-26T10:11:11.744Z,61.65
2023-03-26T10:12:39.770Z,63.33
2023-03-26T10:13:58.985Z,62.57
2023-03-26T10:15:25.102Z,61.71
2023-03-26T10:16:40.282Z,61.94
2023-03-26T10:18:01.593Z,59.11
2023-03-26T10:19:25.963Z,59.72
2023-03-26T10:20:47.719Z,61.34
2023-03-26T10:22:14.920Z,62.77
2023-03-26T10:25:17.175Z,59.17
2023-03-26T10:27:09.113Z,60.31
2023-03-26T10:28:26.370Z,63.25
2023-03-26T10:29:42.031Z,61.01
2023-03-26T10:31:01.281Z,60.00
2023-03-26T10:32:12.982Z,60.86
2023-03-26T10:33:19.740Z,61.10
2023-03-26T10:34:41.422Z,60.99
2023-03-26T10:36:06.957Z,61.55
2023-03-26T10:37:39.942Z,62.23
2023-03-26T10:38:59.354Z,63.21
2023-03-26T10:40:26.705Z,65.39
2023-03-26T10:41:47.416Z,66.04
2023-03-26T10:43:16.081Z,67.03
2023-03-26T10:44:39.671Z,67.93
2023-03-26T10:46:19.718Z,68.31
2023-03-26T10:47:44.509Z,69.09
2023-03-26T10:50:33.668Z,70.06
2023-03-26T10:51:52.828Z,70.50
2023-03-26T10:53:16.051Z,71.20
2023-03-26T10:54:25.155Z,72.09
2023-03-26T10:55:45.054Z,71.11
2023-03-26T10:56:50.998Z,72.20
2023-03-26T10:57:59.978Z,69.50
2023-03-26T10:59:08.631Z,68.75
2023-03-26T11:00:27.788Z,67.78
2023-03-26T11:01:36.632Z,68.10
2023-03-26T11:02:42.793Z,68.78
2023-03-26T11:03:50.611Z,69.42
2023-03-26T11:05:02.235Z,69.99
2023-03-26T11:06:14.442Z,69.80
2023-03-26T11:07:42.518Z,70.90
2023-03-26T11:10:40.456Z,69.45
2023-03-26T11:12:02.118Z,69.99
2023-03-26T11:13:28.619Z,67.79
2023-03-26T11:14:50.949Z,65.18
2023-03-26T11:17:40.864Z,65.02
2023-03-26T11:19:16.104Z,66.39
2023-03-26T11:20:44.199Z,65.77
2023-03-26T11:21:53.128Z,66.20
2023-03-26T11:23:05.324Z,68.28
2023-03-26T11:24:14.197Z,67.59
2023-03-26T11:25:28.505Z,65.59
2023-03-26T11:27:15.171Z,66.97
2023-03-26T11:28:27.986Z,66.06
2023-03-26T11:29:34.253Z,66.09
2023-03-26T11:30:54.961Z,65.40
2023-03-26T11:32:04.935Z,68.36
2023-03-26T11:33:13.597Z,65.75
2023-03-26T11:34:22.722Z,65.38
2023-03-26T11:35:40.280Z,65.69
2023-03-26T11:36:44.579Z,65.98
2023-03-26T11:39:27.144Z,67.47
2023-03-26T11:40:47.387Z,67.88
2023-03-26T11:41:55.110Z,69.15
2023-03-26T11:43:06.328Z,69.19
2023-03-26T11:44:15.084Z,67.87
2023-03-26T11:45:21.121Z,66.92
2023-03-26T11:46:27.039Z,65.54
2023-03-26T11:47:33.297Z,66.83
2023-03-26T11:48:43.662Z,65.23
2023-03-26T11:49:49.580Z,65.71
2023-03-26T11:50:55.761Z,67.57
2023-03-26T11:51:58.604Z,65.08
2023-03-26T11:53:13.982Z,68.42
2023-03-26T11:54:17.253Z,64.68
2023-03-26T11:55:20.646Z,65.41
2023-03-26T11:56:29.953Z,65.97
2023-03-26T11:57:36.366Z,65.08
2023-03-26T11:58:58.788Z,65.41
2023-03-26T12:00:12.229Z,65.89
2023-03-26T12:01:25.928Z,64.23
2023-03-26T12:02:41.140Z,63.12
2023-03-26T12:03:56.811Z,63.82
2023-03-26T12:05:18.840Z,64.02
2023-03-26T12:06:27.308Z,65.16
2023-03-26T12:07:36.937Z,65.88
2023-03-26T12:08:41.905Z,64.18
2023-03-26T12:09:57.578Z,62.73
2023-03-26T12:11:11.628Z,60.71
2023-03-26T12:12:13.972Z,62.76
2023-03-26T12:13:42.427Z,60.92
2023-03-26T12:14:45.286Z,59.44
2023-03-26T12:15:47.944Z,59.13
2023-03-26T12:17:07.048Z,59.24
2023-03-26T12:18:21.950Z,59.94
2023-03-26T12:19:27.315Z,60.18
2023-03-26T12:20:32.783Z,61.21
2023-03-26T12:21:49.893Z,62.05
2023-03-26T12:22:58.821Z,62.46
2023-03-26T12:24:07.235Z,62.81
2023-03-26T12:25:24.849Z,62.63
2023-03-26T12:26:40.746Z,62.80
2023-03-26T12:27:52.546Z,62.20
2023-03-26T12:28:54.881Z,63.94
2023-03-26T12:30:13.310Z,63.41
2023-03-26T12:31:20.088Z,63.96
2023-03-26T12:32:32.403Z,62.88
2023-03-26T12:33:34.871Z,63.66
2023-03-26T12:34:39.086Z,63.05
2023-03-26T12:35:42.309Z,64.72
2023-03-26T12:36:53.498Z,62.30
2023-03-26T12:38:15.983Z,59.67
2023-03-26T12:40:09.488Z,61.78
2023-03-26T12:40:39.210Z,61.71
2023-03-26T12:44:43.007Z,63.54
2023-03-26T12:44:51.010Z,63.06
2023-03-26T12:45:40.915Z,60.27
2023-03-26T12:47:57.721Z,59.38
2023-03-26T12:48:00.518Z,59.81
2023-03-26T12:49:04.971Z,59.24
2023-03-26T12:50:13.949Z,58.25
2023-03-26T12:51:25.743Z,59.69
2023-03-26T12:52:46.994Z,60.59
2023-03-26T12:54:15.881Z,57.63
2023-03-26T12:55:31.960Z,57.44
2023-03-26T12:56:41.234Z,55.15
2023-03-26T12:57:48.858Z,56.31
2023-03-26T12:59:01.323Z,55.38
2023-03-26T13:00:14.548Z,57.63
2023-03-26T13:01:30.028Z,57.54
2023-03-26T13:02:43.382Z,59.51
2023-03-26T13:05:27.264Z,59.10
2023-03-26T13:07:01.721Z,59.04
2023-03-26T13:08:17.518Z,59.11
2023-03-26T13:09:43.218Z,58.54
2023-03-26T13:10:52.606Z,58.36
2023-03-26T13:13:41.383Z,57.67
2023-03-26T13:16:07.937Z,56.85
2023-03-26T13:17:26.053Z,56.71
2023-03-26T13:18:51.873Z,57.76
2023-03-26T13:20:16.054Z,55.95
2023-03-26T13:21:42.342Z,56.12
2023-03-26T13:22:57.275Z,55.94
2023-03-26T13:24:28.801Z,57.10
2023-03-26T13:25:46.960Z,57.36
2023-03-26T13:27:08.181Z,57.50
2023-03-26T13:30:04.001Z,58.36
2023-03-26T13:31:15.893Z,57.20
2023-03-26T13:32:47.944Z,56.40
2023-03-26T13:34:11.970Z,56.16
2023-03-26T13:35:23.748Z,55.76
2023-03-26T13:36:36.155Z,55.66
2023-03-26T13:37:57.223Z,57.06
2023-03-26T13:39:05.329Z,56.79
2023-03-26T13:40:27.917Z,54.74
2023-03-26T13:42:01.532Z,55.13
2023-03-26T13:43:13.222Z,56.57
2023-03-26T13:44:37.078Z,56.33
2023-03-26T13:45:58.459Z,55.34
2023-03-26T13:47:10.615Z,54.42
2023-03-26T13:48:16.441Z,54.25
2023-03-26T13:49:22.372Z,58.67
2023-03-26T13:50:34.883Z,54.85
2023-03-26T13:51:44.083Z,54.11
2023-03-26T13:52:51.780Z,53.63
2023-03-26T13:54:18.967Z,53.51
2023-03-26T13:56:44.886Z,56.13
2023-03-26T13:58:15.473Z,56.12
2023-03-26T13:59:26.540Z,57.58
2023-03-26T14:00:53.745Z,60.75
2023-03-26T14:02:12.040Z,55.30
2023-03-26T14:03:42.244Z,56.37
2023-03-26T14:04:49.226Z,57.09
2023-03-26T14:05:55.360Z,54.93
2023-03-26T14:07:21.462Z,61.13
2023-03-26T14:08:40.972Z,55.46
2023-03-26T14:09:50.804Z,57.40
2023-03-26T14:10:56.907Z,55.84
2023-03-26T14:12:21.146Z,56.44
2023-03-26T14:13:28.548Z,58.69
2023-03-26T14:14:50.846Z,57.09
2023-03-26T14:16:06.328Z,62.91
2023-03-26T14:17:16.980Z,58.04
2023-03-26T14:18:22.869Z,60.68
2023-03-26T14:19:35.507Z,57.54
2023-03-26T14:21:06.346Z,59.82
2023-03-26T14:22:12.198Z,69.69
2023-03-26T14:23:33.126Z,68.64
2023-03-26T14:24:58.696Z,69.88
2023-03-26T14:26:25.867Z,71.18
2023-03-26T14:27:37.979Z,68.70
2023-03-26T14:28:53.256Z,73.22
2023-03-26T14:32:33.313Z,71.92
2023-03-26T14:33:52.186Z,76.21
2023-03-26T14:35:14.463Z,72.20
2023-03-26T14:36:28.868Z,73.17
2023-03-26T14:38:08.619Z,72.48
2023-03-26T14:39:29.432Z,72.57
2023-03-26T14:40:58.722Z,68.79
2023-03-26T14:42:08.588Z,67.72
2023-03-26T14:43:31.755Z,68.91
2023-03-26T14:44:48.484Z,66.56
2023-03-26T14:45:54.110Z,67.72
2023-03-26T14:47:08.982Z,65.38
2023-03-26T14:48:33.021Z,64.33
2023-03-26T14:49:56.484Z,66.94
2023-03-26T14:51:19.453Z,69.22
2023-03-26T14:52:51.146Z,68.42
2023-03-26T14:53:57.323Z,67.39
2023-03-26T14:55:03.242Z,64.17
2023-03-26T14:56:19.371Z,66.08
2023-03-26T14:57:37.202Z,65.10
2023-03-26T14:59:08.833Z,65.76
2023-03-26T15:00:25.750Z,65.20
2023-03-26T15:01:46.964Z,64.14
2023-03-26T15:03:10.771Z,63.79
2023-03-26T15:04:31.955Z,63.42
2023-03-26T15:05:51.451Z,63.80
2023-03-26T15:07:16.488Z,64.51
2023-03-26T15:08:54.865Z,65.68
2023-03-26T15:10:19.984Z,64.47
2023-03-26T15:11:42.463Z,65.52
2023-03-26T15:14:39.600Z,64.64
2023-03-26T15:16:20.355Z,63.85
2023-03-26T15:17:35.287Z,63.69
2023-03-26T15:18:56.297Z,63.86
2023-03-26T15:20:12.163Z,63.69
2023-03-26T15:21:44.323Z,63.48
2023-03-26T15:23:05.607Z,63.33
2023-03-26T15:24:39.949Z,63.12
2023-03-26T15:26:02.511Z,62.96
2023-03-26T15:27:32.801Z,61.43
2023-03-26T15:28:45.605Z,61.51
2023-03-26T15:30:05.949Z,61.05
2023-03-26T15:31:35.116Z,61.65
2023-03-26T15:34:34.140Z,66.17
2023-03-26T15:36:09.696Z,62.67
2023-03-26T15:37:30.808Z,59.43
2023-03-26T15:38:57.147Z,65.21
2023-03-26T15:40:39.786Z,60.26
2023-03-26T15:41:46.388Z,61.00
2023-03-26T15:42:56.235Z,63.60
2023-03-26T15:44:23.111Z,64.42
2023-03-26T15:45:18.185Z,63.66
2023-03-26T15:46:31.222Z,63.08
2023-03-26T15:47:57.837Z,63.03
2023-03-26T15:49:05.308Z,64.00
2023-03-26T15:50:48.016Z,65.03
2023-03-26T15:52:15.046Z,65.70
2023-03-26T15:53:37.176Z,67.59
2023-03-26T15:54:52.653Z,67.68
2023-03-26T15:56:34.740Z,69.10
2023-03-26T15:57:40.682Z,68.84
2023-03-26T15:58:47.490Z,69.69
2023-03-26T16:00:16.606Z,69.97
2023-03-26T16:01:45.919Z,69.34
2023-03-26T16:03:14.504Z,70.65
2023-03-26T16:04:27.125Z,70.02
2023-03-26T16:05:49.349Z,71.25
2023-03-26T16:07:03.454Z,71.96
2023-03-26T16:08:15.752Z,73.41
2023-03-26T16:09:28.947Z,73.69
2023-03-26T16:10:54.517Z,73.67
2023-03-26T16:12:00.372Z,73.98
2023-03-26T16:13:39.390Z,73.65
2023-03-26T16:15:10.076Z,73.81
2023-03-26T16:16:19.506Z,73.27
2023-03-26T16:17:23.344Z,73.35
2023-03-26T16:18:32.391Z,73.42
2023-03-26T16:19:53.261Z,73.34